Time;durP1;ratioP1;P1;durP2;ratioP2;P2;SDS_P1;SDS_P2;PMS_P1;PMS_P2;Temp;Humidity;BMP_temperature;BMP_pressure;BME280_temperature;BME280_humidity;BME280_pressure;Samples;Min_cycle;Max_cycle;Signal;HPM_P1;HPM_P2
2023/06/01 04:31:57;;;;;;;;;30.75;22.75;;;;;19.96;56.13;101473.59;1417326;26;46350;-71
2023/06/01 04:34:23;;;;;;;;;28.50;24.00;;;;;20.00;55.88;101476.94;5015166;28;46127;-70
2023/06/01 04:36:51;;;;;;;;;26.25;24.75;;;;;20.00;56.12;101480.53;5015133;28;45500;-73
2023/06/01 04:39:16;;;;;;;;;24.25;20.50;;;;;19.97;56.40;101485.38;5014989;28;46055;-73
2023/06/01 04:41:41;;;;;;;;;26.25;22.00;;;;;19.96;56.58;101489.06;5014978;28;45325;-73
2023/06/01 04:44:08;;;;;;;;;22.50;19.25;;;;;19.96;56.58;101484.50;5015348;28;45328;-73
2023/06/01 04:46:35;;;;;;;;;26.25;24.50;;;;;19.91;56.46;101478.50;5014831;28;45623;-72
2023/06/01 04:49:00;;;;;;;;;25.50;21.75;;;;;19.92;56.64;101488.41;5014951;28;46063;-74
2023/06/01 04:51:30;;;;;;;;;33.75;26.25;;;;;19.95;56.59;101496.34;5014218;28;45268;-71
2023/06/01 04:53:56;;;;;;;;;23.00;21.00;;;;;19.91;56.70;101492.09;5008815;28;45306;-71
2023/06/01 04:56:29;;;;;;;;;29.75;26.50;;;;;19.95;56.62;101500.94;5004374;28;45778;-72
2023/06/01 04:58:56;;;;;;;;;25.50;22.25;;;;;19.95;56.60;101492.75;5014975;28;46305;-71
2023/06/01 05:01:24;;;;;;;;;31.50;22.50;;;;;19.96;56.48;101499.94;5014643;28;45483;-72
2023/06/01 05:03:52;;;;;;;;;23.00;20.75;;;;;19.94;56.80;101496.47;5014972;28;45592;-72
2023/06/01 05:06:19;;;;;;;;;23.25;22.50;;;;;19.93;56.42;101486.56;5014881;28;45268;-73
2023/06/01 05:08:45;;;;;;;;;30.25;27.00;;;;;19.97;56.67;101497.13;5013324;28;46325;-72
2023/06/01 05:11:10;;;;;;;;;25.75;23.25;;;;;19.90;56.53;101473.19;5014953;28;45182;-75
2023/06/01 05:13:40;;;;;;;;;29.00;24.75;;;;;20.00;56.67;101496.88;5017794;28;45466;-71
2023/06/01 05:16:07;;;;;;;;;26.25;23.75;;;;;19.94;56.94;101491.03;5014347;28;45508;-73
2023/06/01 05:18:33;;;;;;;;;24.75;24.75;;;;;19.95;56.83;101493.63;5013863;28;46350;-71
2023/06/01 05:20:59;;;;;;;;;26.25;22.75;;;;;19.96;56.59;101508.13;4996384;28;45693;-73
2023/06/01 05:23:25;;;;;;;;;29.25;26.50;;;;;19.96;56.78;101502.66;5014774;28;45269;-75
2023/06/01 05:25:51;;;;;;;;;29.00;24.50;;;;;19.93;56.72;101495.59;5011275;28;45427;-76
2023/06/01 05:28:16;;;;;;;;;24.75;21.50;;;;;19.96;56.75;101497.22;5011485;28;45994;-74
2023/06/01 05:30:41;;;;;;;;;25.00;20.50;;;;;19.98;56.83;101501.59;5004168;28;45364;-74
2023/06/01 05:33:07;;;;;;;;;31.75;27.25;;;;;19.91;56.89;101491.22;5014221;28;45468;-75
2023/06/01 05:35:32;;;;;;;;;21.75;21.25;;;;;20.03;56.85;101502.09;5013979;28;45411;-73
2023/06/01 05:37:59;;;;;;;;;32.25;28.25;;;;;20.07;56.53;101512.78;5013923;28;47446;-78
2023/06/01 05:40:25;;;;;;;;;32.50;27.00;;;;;20.04;56.34;101511.16;5013424;28;45277;-76
2023/06/01 05:42:50;;;;;;;;;31.25;26.00;;;;;20.05;56.50;101501.13;5014685;28;45533;-77
2023/06/01 05:45:15;;;;;;;;;29.75;26.50;;;;;20.06;56.36;101502.88;5013860;28;45557;-74
2023/06/01 05:47:40;;;;;;;;;32.00;30.75;;;;;20.16;56.47;101512.09;5014210;28;46026;-79
2023/06/01 05:50:06;;;;;;;;;27.50;24.25;;;;;20.14;56.36;101505.91;5012344;28;45404;-76
2023/06/01 05:52:32;;;;;;;;;25.50;24.00;;;;;20.11;55.88;101500.66;5006592;28;45367;-75
2023/06/01 05:54:57;;;;;;;;;23.75;21.50;;;;;20.11;56.29;101500.66;5013211;28;45485;-76
2023/06/01 05:57:22;;;;;;;;;28.00;25.50;;;;;20.18;55.86;101511.00;5012698;28;46006;-78
2023/06/01 05:59:48;;;;;;;;;29.00;27.75;;;;;20.14;55.96;101506.78;5013997;28;45566;-75
2023/06/01 06:02:14;;;;;;;;;32.00;25.75;;;;;20.00;56.05;101488.72;5014026;28;45577;-76
2023/06/01 06:04:40;;;;;;;;;29.50;27.00;;;;;20.05;56.30;101506.56;5013717;28;45513;-74
2023/06/01 06:07:05;;;;;;;;;33.75;25.75;;;;;20.11;56.28;101512.44;5013386;28;45566;-74
2023/06/01 06:09:30;;;;;;;;;27.50;25.75;;;;;20.12;56.11;101516.91;5013714;28;45585;-76
2023/06/01 06:11:56;;;;;;;;;29.75;24.75;;;;;20.12;55.78;101510.56;5014168;28;45895;-75
2023/06/01 06:14:21;;;;;;;;;29.25;26.25;;;;;20.09;55.67;101510.78;5013946;28;45404;-76
2023/06/01 06:16:47;;;;;;;;;25.50;25.50;;;;;20.13;55.83;101518.63;5013638;28;51398;-77
2023/06/01 06:19:12;;;;;;;;;26.25;25.00;;;;;20.11;55.85;101514.28;5009445;28;47500;-78
2023/06/01 06:21:38;;;;;;;;;17.50;16.00;;;;;20.18;55.83;101515.56;5007563;28;46043;-72
2023/06/01 06:24:03;;;;;;;;;16.50;15.75;;;;;20.31;55.67;101513.69;5013926;28;45399;-72
2023/06/01 06:26:29;;;;;;;;;17.25;16.25;;;;;20.44;54.90;101514.53;5014612;28;46532;-75
2023/06/01 06:28:54;;;;;;;;;17.75;17.75;;;;;20.55;54.78;101500.09;5016556;28;45502;-73
2023/06/01 06:31:20;;;;;;;;;21.25;16.00;;;;;20.73;54.31;101504.16;5017251;28;45311;-74
2023/06/01 06:33:46;;;;;;;;;22.75;16.50;;;;;20.88;54.44;101511.16;5016262;28;45400;-74
2023/06/01 06:36:11;;;;;;;;;25.25;23.25;;;;;20.92;53.35;101495.44;5016194;28;45452;-73
2023/06/01 06:38:36;;;;;;;;;19.25;16.00;;;;;21.10;53.24;101507.63;5016604;28;46210;-72
2023/06/01 06:41:02;;;;;;;;;15.00;14.00;;;;;21.20;53.15;101505.09;5017170;28;45237;-73
2023/06/01 06:43:27;;;;;;;;;24.25;22.50;;;;;21.18;52.74;101491.56;5016315;28;45466;-73
2023/06/01 06:45:53;;;;;;;;;15.00;14.00;;;;;21.32;52.84;101505.00;5016453;28;45381;-71
2023/06/01 06:48:18;;;;;;;;;18.75;15.25;;;;;21.39;52.60;101500.81;5015352;28;48092;-74
2023/06/01 06:50:44;;;;;;;;;21.00;15.00;;;;;21.49;51.95;101499.09;5015935;28;45405;-73
2023/06/01 06:53:10;;;;;;;;;19.50;16.50;;;;;21.59;52.09;101501.97;5016340;28;46435;-73
2023/06/01 06:55:36;;;;;;;;;15.50;14.50;;;;;21.64;51.20;101488.81;5015835;28;45390;-71
2023/06/01 06:58:02;;;;;;;;;22.00;15.75;;;;;21.73;51.62;101495.38;5015805;28;45381;-72
2023/06/01 07:00:27;;;;;;;;;13.50;13.50;;;;;21.82;50.93;101498.25;5016758;28;45472;-72
2023/06/01 07:02:53;;;;;;;;;16.50;16.25;;;;;21.88;50.98;101507.78;4998564;28;45589;-73
2023/06/01 07:05:19;;;;;;;;;19.25;18.00;;;;;21.97;51.00;101517.09;5016637;28;46612;-73
2023/06/01 07:07:44;;;;;;;;;20.25;15.50;;;;;21.94;50.54;101501.84;5015405;28;45348;-72
2023/06/01 07:10:10;;;;;;;;;19.25;18.25;;;;;22.07;50.43;101508.06;5016626;28;45384;-72
2023/06/01 07:12:36;;;;;;;;;15.50;15.50;;;;;22.08;50.48;101496.16;5016307;28;45347;-73
2023/06/01 07:15:02;;;;;;;;;26.75;19.50;;;;;22.16;50.03;101512.75;5015813;28;45516;-74
2023/06/01 07:17:27;;;;;;;;;15.25;14.25;;;;;22.22;49.83;101505.91;4998092;28;45325;-74
2023/06/01 07:19:53;;;;;;;;;14.50;13.50;;;;;22.15;49.90;101482.84;4982062;28;45420;-73
2023/06/01 07:22:20;;;;;;;;;22.25;16.25;;;;;22.32;49.79;101506.03;5015820;28;45482;-74
2023/06/01 07:24:46;;;;;;;;;15.00;13.75;;;;;22.30;49.43;101497.94;5015870;28;45404;-72
2023/06/01 07:27:12;;;;;;;;;14.50;12.50;;;;;22.33;49.57;101499.56;5016127;28;45228;-74
2023/06/01 07:29:38;;;;;;;;;18.50;17.75;;;;;22.38;49.75;101516.44;5016334;28;45369;-72
2023/06/01 07:32:04;;;;;;;;;27.25;25.50;;;;;22.35;49.53;101505.78;5014610;28;45540;-73
2023/06/01 07:34:29;;;;;;;;;18.25;14.50;;;;;22.42;48.99;101516.06;5015712;28;46051;-74
2023/06/01 07:36:58;;;;;;;;;24.75;22.25;;;;;22.40;49.54;101514.44;5015766;28;45201;-73
2023/06/01 07:39:23;;;;;;;;;19.25;14.00;;;;;22.48;48.69;101509.22;5016185;28;45392;-74
2023/06/01 07:41:50;;;;;;;;;15.75;15.25;;;;;22.51;48.90;101519.91;5015400;28;51327;-73
2023/06/01 07:44:18;;;;;;;;;17.50;14.50;;;;;22.53;48.95;101526.97;5016159;28;45287;-73
2023/06/01 07:46:44;;;;;;;;;22.00;16.50;;;;;22.57;48.92;101527.56;5015475;28;45225;-74
2023/06/01 07:49:13;;;;;;;;;16.00;14.75;;;;;22.49;48.74;101519.16;5015701;28;45409;-73
2023/06/01 07:51:38;;;;;;;;;18.00;17.25;;;;;22.57;48.81;101524.84;5015422;28;46159;-72
2023/06/01 07:54:04;;;;;;;;;32.50;24.00;;;;;22.55;48.51;101535.91;5015678;28;46255;-73
2023/06/01 07:56:29;;;;;;;;;26.00;23.25;;;;;22.51;49.14;101539.03;5014718;28;45440;-73
2023/06/01 07:58:55;;;;;;;;;18.50;17.50;;;;;22.47;48.92;101540.25;5012919;28;45451;-73
2023/06/01 08:01:20;;;;;;;;;19.50;18.00;;;;;22.47;48.73;101532.06;5013046;28;45494;-74
2023/06/01 08:03:45;;;;;;;;;20.75;15.00;;;;;22.50;48.94;101540.03;5014144;28;46215;-73
2023/06/01 08:06:11;;;;;;;;;16.00;16.00;;;;;22.59;48.55;101544.72;5013435;28;45498;-73
2023/06/01 08:08:37;;;;;;;;;21.25;20.00;;;;;22.60;48.83;101528.19;5013751;28;45322;-73
2023/06/01 08:11:02;;;;;;;;;18.00;16.00;;;;;22.61;48.40;101524.47;5014778;28;45364;-74
2023/06/01 08:13:28;;;;;;;;;17.25;16.25;;;;;22.59;48.31;101522.84;5014822;28;46381;-74
2023/06/01 08:15:53;;;;;;;;;19.25;18.00;;;;;22.64;48.52;101523.31;4997565;28;45373;-74
2023/06/01 08:18:23;;;;;;;;;21.50;15.00;;;;;22.67;48.23;101533.16;5015671;28;45343;-74
2023/06/01 08:20:49;;;;;;;;;16.50;14.25;;;;;22.68;48.42;101518.47;5015359;28;45280;-72
2023/06/01 08:23:16;;;;;;;;;18.25;15.25;;;;;22.72;48.16;101531.75;5015026;28;45401;-74
2023/06/01 08:25:42;;;;;;;;;17.25;15.00;;;;;22.70;48.36;101519.22;5015229;28;45454;-73
2023/06/01 08:28:08;;;;;;;;;17.50;15.75;;;;;22.74;48.47;101524.31;5015124;28;45272;-73
2023/06/01 08:30:33;;;;;;;;;21.25;18.00;;;;;22.78;48.20;101531.28;5015019;28;45466;-74
2023/06/01 08:32:58;;;;;;;;;18.25;16.00;;;;;22.82;48.04;101530.00;5014945;28;45316;-74
2023/06/01 08:35:25;;;;;;;;;21.75;16.75;;;;;22.86;47.90;101530.63;5015045;28;45714;-73
2023/06/01 08:37:50;;;;;;;;;20.25;17.00;;;;;22.81;48.25;101514.59;5015326;28;45364;-73
2023/06/01 08:40:16;;;;;;;;;21.25;18.75;;;;;22.87;48.27;101522.31;5014597;28;45485;-71
2023/06/01 08:42:45;;;;;;;;;12.25;12.25;;;;;22.89;47.82;101524.88;5013854;28;45341;-72
2023/06/01 08:45:12;;;;;;;;;19.75;17.00;;;;;22.89;47.76;101523.00;5014872;28;45367;-74
2023/06/01 08:47:38;;;;;;;;;19.25;16.50;;;;;22.87;48.24;101510.50;5014708;28;45339;-73
2023/06/01 08:50:04;;;;;;;;;17.25;14.00;;;;;22.94;47.67;101518.03;5014324;28;45811;-73
2023/06/01 08:52:31;;;;;;;;;18.75;16.25;;;;;23.02;47.70;101521.00;4996676;28;46344;-73
2023/06/01 08:55:04;;;;;;;;;16.25;16.25;;;;;23.06;48.05;101521.56;5014824;28;45363;-72
2023/06/01 08:57:30;;;;;;;;;20.25;18.00;;;;;23.08;47.71;101515.97;5014959;28;45402;-73
2023/06/01 08:59:58;;;;;;;;;19.75;18.50;;;;;23.09;47.89;101507.63;5015185;28;45411;-73
2023/06/01 09:02:23;;;;;;;;;13.50;13.25;;;;;23.08;47.70;101508.63;4997353;28;47026;-74
2023/06/01 09:04:50;;;;;;;;;22.75;21.50;;;;;23.08;47.92;101511.38;5014929;28;45470;-73
2023/06/01 09:07:15;;;;;;;;;14.50;14.50;;;;;23.05;47.87;101500.72;5014744;28;45392;-73
2023/06/01 09:09:40;;;;;;;;;15.50;13.50;;;;;23.11;48.07;101511.13;5014655;28;45375;-75
2023/06/01 09:12:28;;;;;;;;;17.00;15.25;;;;;23.14;47.79;101510.00;5014606;28;46111;-71
2023/06/01 09:15:09;;;;;;;;;15.00;15.00;;;;;23.15;47.60;101503.50;5014991;28;45273;-73
2023/06/01 09:17:36;;;;;;;;;14.25;14.25;;;;;23.13;47.49;101500.06;5013337;28;45443;-73
2023/06/01 09:20:01;;;;;;;;;21.50;19.25;;;;;23.18;47.99;101508.72;5014812;28;45542;-73
2023/06/01 09:22:43;;;;;;;;;15.50;15.25;;;;;23.02;47.69;101476.34;5014355;28;46053;-73
2023/06/01 09:25:09;;;;;;;;;18.75;18.25;;;;;23.16;47.16;101497.91;5014502;28;45383;-73
2023/06/01 09:27:49;;;;;;;;;15.00;13.50;;;;;23.24;47.20;101499.97;5014529;28;45372;-73
2023/06/01 09:30:16;;;;;;;;;16.25;14.00;;;;;23.24;47.50;101495.38;5014467;28;45210;-73
2023/06/01 09:32:44;;;;;;;;;23.00;21.75;;;;;23.26;47.58;101487.91;5013975;28;46543;-73
2023/06/01 09:35:10;;;;;;;;;18.75;14.75;;;;;23.27;47.38;101488.75;5013272;28;45403;-73
2023/06/01 09:37:37;;;;;;;;;17.75;15.25;;;;;23.31;47.36;101484.75;5014413;28;45383;-73
2023/06/01 09:40:16;;;;;;;;;20.50;16.50;;;;;23.30;47.56;101486.63;5014137;28;45601;-72
2023/06/01 09:42:42;;;;;;;;;17.75;15.00;;;;;23.35;47.29;101494.44;5014289;28;46496;-71
2023/06/01 09:45:17;;;;;;;;;17.75;16.00;;;;;23.34;47.77;101479.88;5014173;28;45497;-73
2023/06/01 09:47:42;;;;;;;;;19.00;17.00;;;;;23.37;47.08;101486.97;5014485;28;45320;-72
2023/06/01 09:50:07;;;;;;;;;23.75;20.25;;;;;23.44;48.05;101484.53;5013875;28;45441;-73
2023/06/01 09:52:33;;;;;;;;;15.50;13.00;;;;;23.43;47.52;101483.69;5013849;28;47697;-74
2023/06/01 09:55:05;;;;;;;;;18.75;18.75;;;;;23.47;47.13;101489.75;5016792;28;45307;-74
2023/06/01 09:57:31;;;;;;;;;17.25;16.50;;;;;23.48;47.13;101486.88;4998929;28;45523;-70
2023/06/01 09:59:57;;;;;;;;;19.50;16.50;;;;;23.48;47.17;101481.38;5017313;28;45666;-73
2023/06/01 10:02:24;;;;;;;;;18.25;18.25;;;;;23.52;47.16;101477.44;5017120;28;45440;-74
2023/06/01 10:04:58;;;;;;;;;18.25;15.75;;;;;23.52;47.18;101488.38;5016749;28;45401;-73
2023/06/01 10:07:25;;;;;;;;;20.00;16.25;;;;;23.55;47.24;101474.44;5015676;28;45376;-73
2023/06/01 10:09:54;;;;;;;;;20.75;16.50;;;;;23.53;47.23;101473.69;5017598;28;45300;-72
2023/06/01 10:12:20;;;;;;;;;19.50;17.00;;;;;23.59;46.67;101475.88;5017128;28;45540;-73
2023/06/01 10:14:46;;;;;;;;;20.75;16.75;;;;;23.62;47.17;101475.63;5017675;28;45451;-72
2023/06/01 10:17:16;;;;;;;;;20.25;16.25;;;;;23.64;47.19;101473.63;5016590;28;45379;-73
2023/06/01 10:19:41;;;;;;;;;22.25;17.25;;;;;23.63;46.86;101463.66;5017479;28;45573;-72
2023/06/01 10:22:07;;;;;;;;;14.00;13.75;;;;;23.65;46.56;101461.63;5016981;28;46195;-72
2023/06/01 10:24:34;;;;;;;;;17.75;14.50;;;;;23.70;46.65;101466.72;5017918;28;45360;-74
2023/06/01 10:27:15;;;;;;;;;23.75;16.50;;;;;23.70;46.62;101458.50;5017707;28;45456;-73
2023/06/01 10:29:41;;;;;;;;;22.75;17.00;;;;;23.71;46.51;101458.38;5017620;28;45338;-72
2023/06/01 10:32:37;;;;;;;;;18.75;16.00;;;;;23.77;46.61;101459.66;5016926;28;45891;-74
2023/06/01 10:35:26;;;;;;;;;18.75;18.75;;;;;23.76;46.36;101457.94;5017011;28;45515;-71
2023/06/01 10:38:06;;;;;;;;;18.25;17.25;;;;;23.81;46.52;101458.41;4996436;28;45646;-73
2023/06/01 10:40:33;;;;;;;;;17.75;15.00;;;;;23.67;46.81;101436.84;5016752;28;45728;-74
2023/06/01 10:42:58;;;;;;;;;17.50;17.25;;;;;23.84;46.18;101452.63;5016991;28;45365;-74
2023/06/01 10:45:40;;;;;;;;;19.00;15.75;;;;;23.90;46.04;101452.09;5016141;28;45382;-74
2023/06/01 10:48:10;;;;;;;;;16.00;15.00;;;;;23.93;46.30;101446.31;5016811;28;45387;-73
2023/06/01 10:50:36;;;;;;;;;15.75;15.00;;;;;23.90;46.35;101443.88;4998570;28;46143;-74
2023/06/01 10:53:30;;;;;;;;;16.50;16.50;;;;;23.97;45.87;101442.31;5016500;28;46051;-73
2023/06/01 10:56:27;;;;;;;;;17.25;17.00;;;;;23.99;46.67;101443.00;5016754;28;45348;-73
2023/06/01 10:59:12;;;;;;;;;17.50;15.75;;;;;24.03;46.07;101452.69;5016512;28;45463;-73
2023/06/01 11:01:45;;;;;;;;;16.50;16.50;;;;;24.06;45.87;101437.88;5016164;28;45397;-73
2023/06/01 11:04:12;;;;;;;;;18.50;16.50;;;;;24.07;45.73;101436.88;5016391;28;46788;-73
2023/06/01 11:06:42;;;;;;;;;17.25;15.25;;;;;24.10;45.94;101426.47;5015092;28;45347;-73
2023/06/01 11:09:10;;;;;;;;;16.75;16.25;;;;;24.11;45.70;101425.47;5016393;28;45271;-74
2023/06/01 11:11:58;;;;;;;;;16.75;15.50;;;;;24.20;45.66;101429.22;5016278;28;45559;-74
2023/06/01 11:14:25;;;;;;;;;17.50;15.25;;;;;24.25;45.33;101432.44;5016081;28;46757;-74
2023/06/01 11:16:52;;;;;;;;;17.25;15.00;;;;;24.30;45.36;101434.78;5016778;28;45395;-74
2023/06/01 11:19:24;;;;;;;;;18.75;17.75;;;;;24.32;45.33;101427.28;5016329;28;45490;-74
2023/06/01 11:22:03;;;;;;;;;13.50;13.50;;;;;24.37;44.86;101420.34;5015955;28;46151;-73
2023/06/01 11:24:35;;;;;;;;;19.00;17.00;;;;;24.40;44.79;101411.84;5016151;28;45444;-75
2023/06/01 11:27:10;;;;;;;;;15.00;12.50;;;;;24.45;44.88;101416.88;5016051;28;45371;-73
2023/06/01 11:29:37;;;;;;;;;19.25;14.00;;;;;24.49;44.58;101419.22;5016361;28;45443;-73
2023/06/01 11:32:05;;;;;;;;;16.75;15.25;;;;;24.51;44.83;101417.16;4998061;28;45372;-73
2023/06/01 11:34:37;;;;;;;;;16.50;13.25;;;;;24.58;44.17;101408.41;5015733;28;45498;-74
2023/06/01 11:37:03;;;;;;;;;15.00;14.25;;;;;24.63;44.45;101409.69;5015728;28;45290;-72
2023/06/01 11:39:29;;;;;;;;;16.50;14.00;;;;;24.69;44.54;101406.34;5014492;28;45660;-72
2023/06/01 11:42:06;;;;;;;;;13.25;13.25;;;;;24.71;44.23;101393.34;5014592;28;45538;-73
2023/06/01 11:44:33;;;;;;;;;16.25;16.25;;;;;24.78;43.52;101408.22;5016075;28;45336;-74
2023/06/01 11:46:59;;;;;;;;;14.75;13.75;;;;;24.81;43.61;101407.06;5015368;28;45380;-73
2023/06/01 11:49:25;;;;;;;;;20.25;13.75;;;;;24.87;43.79;101403.72;5014784;28;45468;-72
2023/06/01 11:51:51;;;;;;;;;16.75;14.00;;;;;24.93;44.22;101407.78;5015087;28;45375;-73
2023/06/01 11:54:21;;;;;;;;;16.50;16.50;;;;;24.97;43.33;101401.88;5015866;28;45284;-72
2023/06/01 11:56:46;;;;;;;;;18.00;13.00;;;;;24.95;42.91;101387.44;5015060;28;45530;-73
2023/06/01 11:59:12;;;;;;;;;16.00;14.75;;;;;25.04;43.84;101394.78;5014299;28;45989;-73
2023/06/01 12:01:42;;;;;;;;;17.00;15.00;;;;;25.11;43.95;101384.06;5015357;28;45564;-72
2023/06/01 12:04:19;;;;;;;;;14.00;14.00;;;;;25.22;43.26;101383.91;5015244;28;45455;-73
2023/06/01 12:06:45;;;;;;;;;15.00;15.00;;;;;25.22;42.39;101379.28;5014883;28;45401;-73
2023/06/01 12:09:13;;;;;;;;;14.00;14.00;;;;;25.22;42.31;101371.03;5015427;28;45411;-73
2023/06/01 12:11:39;;;;;;;;;18.75;15.00;;;;;25.34;42.18;101379.97;5015505;28;45604;-73
2023/06/01 12:14:05;;;;;;;;;16.25;15.00;;;;;25.39;42.51;101382.25;5014623;28;45921;-73
2023/06/01 12:16:53;;;;;;;;;17.00;15.50;;;;;25.46;42.62;101388.88;5014556;28;45367;-74
2023/06/01 12:19:20;;;;;;;;;14.25;12.00;;;;;25.51;42.53;101381.06;5014931;28;45346;-74
2023/06/01 12:21:50;;;;;;;;;15.50;13.75;;;;;25.54;42.15;101386.22;5014559;28;45390;-74
2023/06/01 12:24:16;;;;;;;;;9.00;8.50;;;;;25.59;41.41;101379.31;5014897;28;47543;-74
2023/06/01 12:26:42;;;;;;;;;15.25;10.50;;;;;25.64;41.27;101376.09;5015225;28;45484;-73
2023/06/01 12:29:07;;;;;;;;;11.50;10.75;;;;;25.71;41.20;101374.47;5014738;28;45451;-73
2023/06/01 12:31:32;;;;;;;;;19.75;13.25;;;;;25.75;41.24;101383.28;5015225;28;45314;-73
2023/06/01 12:33:58;;;;;;;;;14.25;13.25;;;;;25.78;39.98;101372.81;5014508;28;48857;-73
2023/06/01 12:36:35;;;;;;;;;15.50;12.50;;;;;25.81;39.93;101360.69;5015135;28;45517;-73
2023/06/01 12:39:06;;;;;;;;;12.00;12.00;;;;;25.91;40.00;101364.25;5014022;28;45311;-73
2023/06/01 12:41:31;;;;;;;;;12.25;11.50;;;;;25.97;40.05;101366.34;5014853;28;45289;-73
2023/06/01 12:43:58;;;;;;;;;14.50;11.75;;;;;25.95;39.87;101358.25;5015185;28;47213;-73
2023/06/01 12:46:24;;;;;;;;;14.50;12.75;;;;;26.08;40.14;101366.16;5015075;28;45236;-73
2023/06/01 12:48:51;;;;;;;;;13.50;12.25;;;;;26.16;40.07;101363.47;5014955;28;45328;-74
2023/06/01 12:51:17;;;;;;;;;16.25;16.00;;;;;26.21;39.87;101357.50;5014645;28;45395;-73
2023/06/01 12:53:42;;;;;;;;;13.50;11.50;;;;;26.31;39.32;101366.56;5005826;28;46066;-72
2023/06/01 12:56:08;;;;;;;;;10.00;10.00;;;;;26.34;38.71;101349.78;5009280;28;45455;-73
2023/06/01 12:58:34;;;;;;;;;11.75;11.25;;;;;26.38;38.76;101341.03;5015189;28;45377;-73
2023/06/01 13:01:00;;;;;;;;;12.00;12.00;;;;;26.54;39.17;101356.81;5014723;28;45333;-75
2023/06/01 13:03:26;;;;;;;;;13.75;10.25;;;;;26.61;38.18;101359.81;5014899;28;46086;-75
2023/06/01 13:05:51;;;;;;;;;9.50;9.50;;;;;26.71;38.37;101352.34;5014843;28;45498;-72
2023/06/01 13:08:17;;;;;;;;;11.75;11.50;;;;;26.84;38.28;101343.66;5014704;28;45236;-73
2023/06/01 13:10:43;;;;;;;;;9.00;9.00;;;;;26.97;37.69;101347.72;5014684;28;45269;-72
2023/06/01 13:13:09;;;;;;;;;13.75;12.50;;;;;27.15;36.94;101346.78;5014947;28;45408;-74
2023/06/01 13:15:35;;;;;;;;;10.75;10.75;;;;;27.28;37.06;101349.97;5014749;28;45410;-73
2023/06/01 13:18:01;;;;;;;;;11.75;10.00;;;;;27.39;36.50;101347.78;4996953;28;45393;-74
2023/06/01 13:20:26;;;;;;;;;9.00;8.25;;;;;27.49;35.98;101354.03;5014408;28;45402;-72
2023/06/01 13:22:52;;;;;;;;;8.75;8.00;;;;;27.61;34.46;101340.88;5014863;28;45336;-73
2023/06/01 13:25:19;;;;;;;;;10.75;10.75;;;;;27.74;35.10;101330.22;5014106;28;45308;-72
2023/06/01 13:27:45;;;;;;;;;8.50;8.50;;;;;27.90;34.89;101336.84;5013389;28;45387;-74
2023/06/01 13:30:11;;;;;;;;;11.50;9.25;;;;;28.02;34.72;101329.97;5013376;28;45463;-73
2023/06/01 13:32:36;;;;;;;;;12.00;10.25;;;;;28.15;34.62;101333.97;5014358;28;45398;-72
2023/06/01 13:35:01;;;;;;;;;4.75;4.75;;;;;28.32;34.50;101334.00;5013710;28;46061;-73
2023/06/01 13:37:27;;;;;;;;;10.00;10.00;;;;;28.40;34.40;101322.97;5014376;28;45354;-74
2023/06/01 13:39:52;;;;;;;;;12.25;10.50;;;;;28.56;34.41;101318.31;5013893;28;45286;-73
2023/06/01 13:42:18;;;;;;;;;13.25;10.00;;;;;28.71;33.43;101325.88;5014330;28;45353;-72
2023/06/01 13:44:45;;;;;;;;;11.00;9.50;;;;;28.70;33.17;101325.03;5013716;28;45324;-73
2023/06/01 13:47:15;;;;;;;;;10.00;9.50;;;;;28.88;32.89;101327.63;5014708;28;45421;-72
2023/06/01 13:49:41;;;;;;;;;7.75;7.75;;;;;29.02;32.91;101340.69;5013744;28;45397;-73
2023/06/01 13:52:08;;;;;;;;;11.00;9.00;;;;;28.98;33.32;101329.16;5014093;28;46395;-73
2023/06/01 13:54:33;;;;;;;;;7.00;6.00;;;;;29.05;32.68;101329.31;5013925;28;45325;-73
2023/06/01 13:56:59;;;;;;;;;9.00;8.00;;;;;29.11;32.67;101338.78;5014066;28;45221;-72
2023/06/01 13:59:24;;;;;;;;;8.50;8.50;;;;;29.15;32.74;101324.47;5010550;28;45502;-71
2023/06/01 14:01:50;;;;;;;;;10.75;10.75;;;;;29.27;32.32;101319.41;5011404;28;45421;-74
2023/06/01 14:04:16;;;;;;;;;9.50;9.50;;;;;29.41;31.83;101324.22;5013612;28;45263;-72
2023/06/01 14:06:42;;;;;;;;;8.25;7.75;;;;;29.52;31.74;101323.00;5013872;28;45529;-72
2023/06/01 14:09:07;;;;;;;;;9.25;9.25;;;;;29.65;31.77;101317.72;5012366;28;46022;-72
2023/06/01 14:11:32;;;;;;;;;10.25;10.25;;;;;29.74;31.11;101313.88;5013366;28;46012;-72
2023/06/01 14:13:58;;;;;;;;;10.25;6.50;;;;;29.91;31.21;101325.69;5013884;28;45517;-75
2023/06/01 14:16:23;;;;;;;;;9.50;9.50;;;;;29.98;31.26;101310.13;5013947;28;45496;-74
2023/06/01 14:18:49;;;;;;;;;9.25;9.25;;;;;30.14;31.27;101306.38;5013636;28;45516;-73
2023/06/01 14:21:14;;;;;;;;;10.00;9.00;;;;;30.21;31.01;101315.66;5013397;28;45935;-74
2023/06/01 14:23:41;;;;;;;;;11.00;10.00;;;;;30.21;30.54;101302.69;5013619;28;45431;-73
2023/06/01 14:26:06;;;;;;;;;8.75;6.75;;;;;30.34;31.18;101313.16;5013099;28;45419;-72
2023/06/01 14:28:32;;;;;;;;;7.25;7.25;;;;;30.34;30.63;101307.63;5013646;28;45225;-74
2023/06/01 14:30:57;;;;;;;;;11.00;11.00;;;;;30.44;30.14;101302.72;5012212;28;45401;-74
2023/06/01 14:33:22;;;;;;;;;11.00;11.00;;;;;30.54;30.29;101297.78;5012994;28;46735;-73
2023/06/01 14:35:48;;;;;;;;;12.50;10.00;;;;;30.57;30.58;101296.56;5012893;28;45478;-73
2023/06/01 14:38:13;;;;;;;;;9.00;9.00;;;;;30.56;30.93;101297.59;5013392;28;45420;-73
2023/06/01 14:40:38;;;;;;;;;10.00;7.25;;;;;30.48;31.20;101306.81;5016035;28;46133;-73
2023/06/01 14:43:04;;;;;;;;;9.50;9.00;;;;;30.51;30.53;101297.28;5017244;28;45239;-73
2023/06/01 14:45:29;;;;;;;;;8.25;8.25;;;;;30.52;30.71;101296.28;5015903;28;45403;-74
2023/06/01 14:47:55;;;;;;;;;9.50;9.50;;;;;30.60;30.79;101290.66;5014966;28;45478;-72
2023/06/01 14:50:21;;;;;;;;;14.00;10.50;;;;;30.63;30.80;101298.56;5014790;28;46217;-73
2023/06/01 14:52:46;;;;;;;;;8.25;8.25;;;;;30.69;31.46;101289.53;5016756;28;45366;-73
2023/06/01 14:55:11;;;;;;;;;8.00;8.00;;;;;30.74;30.75;101282.38;5015439;28;45403;-74
2023/06/01 14:57:37;;;;;;;;;8.25;8.00;;;;;30.77;30.74;101281.16;5014860;28;45484;-72
2023/06/01 15:00:04;;;;;;;;;11.00;9.25;;;;;30.78;31.12;101280.97;5015182;28;46025;-72
2023/06/01 15:02:30;;;;;;;;;7.75;7.75;;;;;30.82;30.82;101284.19;5015221;28;45483;-74
2023/06/01 15:04:55;;;;;;;;;9.50;9.00;;;;;30.87;30.98;101273.44;5015686;28;45406;-73
2023/06/01 15:07:20;;;;;;;;;10.75;10.00;;;;;30.96;31.06;101276.97;5016290;28;45597;-70
2023/06/01 15:09:46;;;;;;;;;8.25;8.25;;;;;31.01;31.10;101275.34;5008778;28;46142;-72
2023/06/01 15:12:11;;;;;;;;;10.25;10.00;;;;;31.03;30.84;101280.69;5010652;28;45305;-72
2023/06/01 15:14:36;;;;;;;;;7.75;7.75;;;;;30.90;30.29;101239.78;5017142;28;45360;-72
2023/06/01 15:17:02;;;;;;;;;10.50;10.50;;;;;31.13;30.46;101264.69;5016623;28;45491;-73
2023/06/01 15:19:27;;;;;;;;;10.00;9.00;;;;;31.16;30.93;101270.69;5016599;28;45965;-73
2023/06/01 15:21:52;;;;;;;;;9.50;9.50;;;;;31.18;29.92;101276.91;5016130;28;45247;-73
2023/06/01 15:24:19;;;;;;;;;4.00;3.75;;;;;31.18;30.27;101271.34;5016411;28;49180;-74
2023/06/01 15:26:45;;;;;;;;;11.25;9.75;;;;;31.18;30.29;101265.81;5016001;28;45451;-76
2023/06/01 15:29:10;;;;;;;;;8.75;8.00;;;;;31.18;30.16;101265.81;5016513;28;45532;-75
2023/06/01 15:31:35;;;;;;;;;8.00;8.00;;;;;31.14;30.07;101261.69;5015955;28;52635;-73
2023/06/01 15:34:01;;;;;;;;;12.00;8.75;;;;;31.06;30.69;101266.44;5016148;28;45262;-72
2023/06/01 15:36:26;;;;;;;;;12.00;10.00;;;;;30.99;31.01;101263.56;5016147;28;45213;-74
2023/06/01 15:38:51;;;;;;;;;8.25;8.25;;;;;30.99;30.79;101260.81;5016249;28;45417;-74
2023/06/01 15:41:17;;;;;;;;;11.50;10.00;;;;;31.00;30.98;101265.31;5016237;28;45243;-72
2023/06/01 15:43:42;;;;;;;;;13.75;10.75;;;;;30.98;30.46;101261.84;5016229;28;45510;-73